Eagle Mills, New York
Current Conditions -  °F | °C
As of 1:51 AM on Tuesday 21 Oct 2014 (Local Time) from KALB Reporting Station
Light Rain Light Rain  
Wind Chill: 52°   Ceiling: 7000
Heat Index: 52°   Visibility: 10mi
Dew Point: 40°   Wind: 10mph
Humidity: 63%   Direction: 180°S
Pressure: 29.92"   Gusts: NA
Location:  42.7478°N, 73.6049°W
Report Text: KALB 210551Z 18009KT 10SM -RA SCT055 OVC070 11/04 A2992 RMK AO2 RAB37 SLP133 P0000 60000 T01110044 10117 20100 56007
Loading
Personal Weather Stations






























Interactive Weather Map
Tropical Storm Tracking
New forecast layout! Learn more

10-Day Weather Forecast

Advertisements
Track Severe Weather on mobile